< < Back
Terminal Aerodrome Forecast


Current Version              Previous Versions:   1  2  3  4  5  6  7  8  9  

Terminal Aerodrome Forecast

560
FTUS44 KBMX 230400 AAC
TAFANB
TAF AMD
KANB 230437Z 2305/2324 VRB03KT 2SM BR BKN005
     FM231000 34004KT 4SM BR SKC
     FM231200 02006KT P6SM SKC=

Latest METAR

871
SAUS70 KWBC 230700 RRH
MTRANB
METAR KANB 230653Z AUTO 16003KT 5SM BR BKN005 OVC013 16/16 A2989 RMK AO2
SLP119 T01610156


USA.gov is the U.S. government's official web portal to all federal, state and local government web resources and services.